Terminal Aerodrome Forecast
Issued by NWS

Home | Current Version | Previous Version | Text Only | Print | Product List | Glossary On
Versions: 1 2 3 4 5 6 7 8 9 10 11 12
732
FTUS45 KRIW 251740
TAFWRL
TAF
KWRL 251740Z 2518/2618 35011G20KT P6SM SCT070 BKN090
     FM260100 34008KT P6SM VCSH SCT050 BKN070
     FM260900 VRB06KT P6SM SCT060 BKN090=

USA.gov is the U.S. government's official web portal to all federal, state and local government web resources and services.